sensor_id;sensor_type;location;lat;lon;timestamp;temperature;humidity
6102;DHT22;3081;50.584;7.032;2022-08-18T00:00:09;19.40;99.90
6102;DHT22;3081;50.584;7.032;2022-08-18T00:02:39;19.40;99.90
6102;DHT22;3081;50.584;7.032;2022-08-18T00:05:08;19.40;99.90
6102;DHT22;3081;50.584;7.032;2022-08-18T00:07:35;19.30;99.90
6102;DHT22;3081;50.584;7.032;2022-08-18T00:10:03;19.30;99.90
6102;DHT22;3081;50.584;7.032;2022-08-18T00:12:34;19.20;99.90
6102;DHT22;3081;50.584;7.032;2022-08-18T00:15:02;19.00;99.90
6102;DHT22;3081;50.584;7.032;2022-08-18T00:17:30;18.90;99.90
6102;DHT22;3081;50.584;7.032;2022-08-18T00:19:57;18.70;99.90
6102;DHT22;3081;50.584;7.032;2022-08-18T00:22:24;18.60;99.90
6102;DHT22;3081;50.584;7.032;2022-08-18T00:24:54;18.60;99.90
6102;DHT22;3081;50.584;7.032;2022-08-18T00:27:23;18.50;99.90
6102;DHT22;3081;50.584;7.032;2022-08-18T00:29:53;18.40;99.90
6102;DHT22;3081;50.584;7.032;2022-08-18T00:32:22;18.30;99.90
6102;DHT22;3081;50.584;7.032;2022-08-18T00:34:49;18.30;99.90
6102;DHT22;3081;50.584;7.032;2022-08-18T00:37:16;18.20;99.90
6102;DHT22;3081;50.584;7.032;2022-08-18T00:39:43;18.10;99.90
6102;DHT22;3081;50.584;7.032;2022-08-18T00:42:12;18.10;99.90
6102;DHT22;3081;50.584;7.032;2022-08-18T00:44:39;18.10;99.90
6102;DHT22;3081;50.584;7.032;2022-08-18T00:47:08;18.20;99.90
6102;DHT22;3081;50.584;7.032;2022-08-18T00:49:35;18.20;99.90
6102;DHT22;3081;50.584;7.032;2022-08-18T00:52:03;18.20;99.90
6102;DHT22;3081;50.584;7.032;2022-08-18T00:54:31;18.30;99.90
6102;DHT22;3081;50.584;7.032;2022-08-18T00:57:01;18.30;99.90
6102;DHT22;3081;50.584;7.032;2022-08-18T00:59:34;18.20;99.90
6102;DHT22;3081;50.584;7.032;2022-08-18T01:02:06;18.20;99.90
6102;DHT22;3081;50.584;7.032;2022-08-18T01:04:41;18.20;99.90
6102;DHT22;3081;50.584;7.032;2022-08-18T01:07:13;18.20;99.90
6102;DHT22;3081;50.584;7.032;2022-08-18T01:09:45;18.20;99.90
6102;DHT22;3081;50.584;7.032;2022-08-18T01:12:12;18.20;99.90
6102;DHT22;3081;50.584;7.032;2022-08-18T01:14:39;18.20;99.90
6102;DHT22;3081;50.584;7.032;2022-08-18T01:17:06;18.20;99.90
6102;DHT22;3081;50.584;7.032;2022-08-18T01:19:52;18.20;99.90
6102;DHT22;3081;50.584;7.032;2022-08-18T01:22:46;18.20;99.90
6102;DHT22;3081;50.584;7.032;2022-08-18T01:25:15;18.20;99.90
6102;DHT22;3081;50.584;7.032;2022-08-18T01:28:00;18.20;99.90
6102;DHT22;3081;50.584;7.032;2022-08-18T01:30:29;18.20;99.90
6102;DHT22;3081;50.584;7.032;2022-08-18T01:32:57;18.20;99.90
6102;DHT22;3081;50.584;7.032;2022-08-18T01:35:26;18.20;99.90
6102;DHT22;3081;50.584;7.032;2022-08-18T01:37:54;18.20;99.90
6102;DHT22;3081;50.584;7.032;2022-08-18T01:40:23;18.20;99.90
6102;DHT22;3081;50.584;7.032;2022-08-18T01:42:50;18.10;99.90
6102;DHT22;3081;50.584;7.032;2022-08-18T01:45:17;18.10;99.90
6102;DHT22;3081;50.584;7.032;2022-08-18T01:47:45;18.00;99.90
6102;DHT22;3081;50.584;7.032;2022-08-18T01:50:12;18.00;99.90
6102;DHT22;3081;50.584;7.032;2022-08-18T01:52:39;18.00;99.90
6102;DHT22;3081;50.584;7.032;2022-08-18T01:55:09;17.90;99.90
6102;DHT22;3081;50.584;7.032;2022-08-18T01:57:36;17.90;99.90
6102;DHT22;3081;50.584;7.032;2022-08-18T02:00:08;17.90;99.90
6102;DHT22;3081;50.584;7.032;2022-08-18T02:02:35;17.90;99.90
6102;DHT22;3081;50.584;7.032;2022-08-18T02:05:06;17.90;99.90
6102;DHT22;3081;50.584;7.032;2022-08-18T02:07:36;17.90;99.90
6102;DHT22;3081;50.584;7.032;2022-08-18T02:10:05;17.90;99.90
6102;DHT22;3081;50.584;7.032;2022-08-18T02:12:34;17.90;99.90
6102;DHT22;3081;50.584;7.032;2022-08-18T02:15:01;17.90;99.90
6102;DHT22;3081;50.584;7.032;2022-08-18T02:17:28;17.80;99.90
6102;DHT22;3081;50.584;7.032;2022-08-18T02:19:55;17.70;99.90
6102;DHT22;3081;50.584;7.032;2022-08-18T02:22:22;17.70;99.90
6102;DHT22;3081;50.584;7.032;2022-08-18T02:24:48;17.70;99.90
6102;DHT22;3081;50.584;7.032;2022-08-18T02:27:16;17.70;99.90
6102;DHT22;3081;50.584;7.032;2022-08-18T02:29:44;17.60;99.90
6102;DHT22;3081;50.584;7.032;2022-08-18T02:32:11;17.70;99.90
6102;DHT22;3081;50.584;7.032;2022-08-18T02:34:38;17.60;99.90
6102;DHT22;3081;50.584;7.032;2022-08-18T02:37:07;17.60;99.90
6102;DHT22;3081;50.584;7.032;2022-08-18T02:39:35;17.50;99.90
6102;DHT22;3081;50.584;7.032;2022-08-18T02:42:03;17.40;99.90
6102;DHT22;3081;50.584;7.032;2022-08-18T02:44:30;17.30;99.90
6102;DHT22;3081;50.584;7.032;2022-08-18T02:46:59;17.30;99.90
6102;DHT22;3081;50.584;7.032;2022-08-18T02:49:27;17.20;99.90
6102;DHT22;3081;50.584;7.032;2022-08-18T02:51:54;17.20;99.90
6102;DHT22;3081;50.584;7.032;2022-08-18T02:54:22;17.20;99.90
6102;DHT22;3081;50.584;7.032;2022-08-18T02:56:50;17.20;99.90
6102;DHT22;3081;50.584;7.032;2022-08-18T02:59:19;17.30;99.90
6102;DHT22;3081;50.584;7.032;2022-08-18T03:01:50;17.30;99.90
6102;DHT22;3081;50.584;7.032;2022-08-18T03:04:21;17.40;99.90
6102;DHT22;3081;50.584;7.032;2022-08-18T03:06:50;17.40;99.90
6102;DHT22;3081;50.584;7.032;2022-08-18T03:09:17;17.40;99.90
6102;DHT22;3081;50.584;7.032;2022-08-18T03:11:45;17.40;99.90
6102;DHT22;3081;50.584;7.032;2022-08-18T03:14:12;17.40;99.90
6102;DHT22;3081;50.584;7.032;2022-08-18T03:16:41;17.30;99.90
6102;DHT22;3081;50.584;7.032;2022-08-18T03:19:08;17.30;99.90
6102;DHT22;3081;50.584;7.032;2022-08-18T03:21:36;17.30;99.90
6102;DHT22;3081;50.584;7.032;2022-08-18T03:24:04;17.30;99.90
6102;DHT22;3081;50.584;7.032;2022-08-18T03:26:32;17.20;99.90
6102;DHT22;3081;50.584;7.032;2022-08-18T03:28:59;17.00;99.90
6102;DHT22;3081;50.584;7.032;2022-08-18T03:31:29;16.80;99.90
6102;DHT22;3081;50.584;7.032;2022-08-18T03:33:58;16.60;99.90
6102;DHT22;3081;50.584;7.032;2022-08-18T03:36:28;16.60;99.90
6102;DHT22;3081;50.584;7.032;2022-08-18T03:39:00;16.70;99.90
6102;DHT22;3081;50.584;7.032;2022-08-18T03:41:27;16.80;99.90
6102;DHT22;3081;50.584;7.032;2022-08-18T03:43:54;17.00;99.90
6102;DHT22;3081;50.584;7.032;2022-08-18T03:46:22;17.00;99.90
6102;DHT22;3081;50.584;7.032;2022-08-18T03:48:49;17.10;99.90
6102;DHT22;3081;50.584;7.032;2022-08-18T03:51:21;17.10;99.90
6102;DHT22;3081;50.584;7.032;2022-08-18T03:53:50;17.20;99.90
6102;DHT22;3081;50.584;7.032;2022-08-18T03:56:22;17.10;99.90
6102;DHT22;3081;50.584;7.032;2022-08-18T03:58:51;17.20;99.90
6102;DHT22;3081;50.584;7.032;2022-08-18T04:01:19;17.20;99.90
6102;DHT22;3081;50.584;7.032;2022-08-18T04:03:53;17.20;99.90
6102;DHT22;3081;50.584;7.032;2022-08-18T04:06:25;17.40;99.90
6102;DHT22;3081;50.584;7.032;2022-08-18T04:08:53;17.50;99.90
6102;DHT22;3081;50.584;7.032;2022-08-18T04:11:23;17.50;99.90
6102;DHT22;3081;50.584;7.032;2022-08-18T04:13:50;17.50;99.90
6102;DHT22;3081;50.584;7.032;2022-08-18T04:16:18;17.40;99.90
6102;DHT22;3081;50.584;7.032;2022-08-18T04:18:45;17.40;99.90
6102;DHT22;3081;50.584;7.032;2022-08-18T04:21:12;17.40;99.90
6102;DHT22;3081;50.584;7.032;2022-08-18T04:23:40;17.40;99.90
6102;DHT22;3081;50.584;7.032;2022-08-18T04:26:08;17.30;99.90
6102;DHT22;3081;50.584;7.032;2022-08-18T04:28:37;17.30;99.90
6102;DHT22;3081;50.584;7.032;2022-08-18T04:31:08;17.40;99.90
6102;DHT22;3081;50.584;7.032;2022-08-18T04:33:37;17.50;99.90
6102;DHT22;3081;50.584;7.032;2022-08-18T04:36:09;17.60;99.90
6102;DHT22;3081;50.584;7.032;2022-08-18T04:38:36;17.60;99.90
6102;DHT22;3081;50.584;7.032;2022-08-18T04:41:04;17.70;99.90
6102;DHT22;3081;50.584;7.032;2022-08-18T04:43:31;17.70;99.90
6102;DHT22;3081;50.584;7.032;2022-08-18T04:46:00;17.80;99.90
6102;DHT22;3081;50.584;7.032;2022-08-18T04:48:29;17.80;99.90
6102;DHT22;3081;50.584;7.032;2022-08-18T04:51:04;17.70;99.90
6102;DHT22;3081;50.584;7.032;2022-08-18T04:53:32;17.70;99.90
6102;DHT22;3081;50.584;7.032;2022-08-18T04:56:16;17.70;99.90
6102;DHT22;3081;50.584;7.032;2022-08-18T04:58:46;17.70;99.90
6102;DHT22;3081;50.584;7.032;2022-08-18T05:01:19;17.70;99.90
6102;DHT22;3081;50.584;7.032;2022-08-18T05:03:46;17.70;99.90
6102;DHT22;3081;50.584;7.032;2022-08-18T05:06:14;17.70;99.90
6102;DHT22;3081;50.584;7.032;2022-08-18T05:08:41;17.70;99.90
6102;DHT22;3081;50.584;7.032;2022-08-18T05:11:09;17.70;99.90
6102;DHT22;3081;50.584;7.032;2022-08-18T05:13:36;17.80;99.90
6102;DHT22;3081;50.584;7.032;2022-08-18T05:16:03;17.90;99.90
6102;DHT22;3081;50.584;7.032;2022-08-18T05:18:33;18.00;99.90
6102;DHT22;3081;50.584;7.032;2022-08-18T05:21:03;18.10;99.90
6102;DHT22;3081;50.584;7.032;2022-08-18T05:23:30;18.10;99.90
6102;DHT22;3081;50.584;7.032;2022-08-18T05:25:58;18.10;99.90
6102;DHT22;3081;50.584;7.032;2022-08-18T05:28:26;18.10;99.90
6102;DHT22;3081;50.584;7.032;2022-08-18T05:30:53;18.10;99.90
6102;DHT22;3081;50.584;7.032;2022-08-18T05:33:22;18.20;99.90
6102;DHT22;3081;50.584;7.032;2022-08-18T05:35:53;18.20;99.90
6102;DHT22;3081;50.584;7.032;2022-08-18T05:38:37;18.30;99.90
6102;DHT22;3081;50.584;7.032;2022-08-18T05:41:09;18.40;99.90
6102;DHT22;3081;50.584;7.032;2022-08-18T05:43:38;18.40;99.90
6102;DHT22;3081;50.584;7.032;2022-08-18T05:46:08;18.30;99.90
6102;DHT22;3081;50.584;7.032;2022-08-18T05:48:36;18.30;99.90
6102;DHT22;3081;50.584;7.032;2022-08-18T05:51:11;18.30;99.90
6102;DHT22;3081;50.584;7.032;2022-08-18T05:53:41;18.30;99.90
6102;DHT22;3081;50.584;7.032;2022-08-18T05:56:30;18.30;99.90
6102;DHT22;3081;50.584;7.032;2022-08-18T05:59:20;18.40;99.90
6102;DHT22;3081;50.584;7.032;2022-08-18T06:01:52;18.40;99.90
6102;DHT22;3081;50.584;7.032;2022-08-18T06:04:39;18.50;99.90
6102;DHT22;3081;50.584;7.032;2022-08-18T06:07:11;18.50;99.90
6102;DHT22;3081;50.584;7.032;2022-08-18T06:09:43;18.50;99.90
6102;DHT22;3081;50.584;7.032;2022-08-18T06:12:18;18.50;99.90
6102;DHT22;3081;50.584;7.032;2022-08-18T06:14:47;18.60;99.90
6102;DHT22;3081;50.584;7.032;2022-08-18T06:17:36;18.70;99.90
6102;DHT22;3081;50.584;7.032;2022-08-18T06:20:11;18.70;99.90
6102;DHT22;3081;50.584;7.032;2022-08-18T06:22:50;18.70;99.90
6102;DHT22;3081;50.584;7.032;2022-08-18T06:25:24;18.80;99.90
6102;DHT22;3081;50.584;7.032;2022-08-18T06:27:57;18.90;99.90
6102;DHT22;3081;50.584;7.032;2022-08-18T06:30:31;18.90;99.90
6102;DHT22;3081;50.584;7.032;2022-08-18T06:33:10;19.00;99.90
6102;DHT22;3081;50.584;7.032;2022-08-18T06:35:42;19.20;99.90
6102;DHT22;3081;50.584;7.032;2022-08-18T06:38:27;19.20;99.90
6102;DHT22;3081;50.584;7.032;2022-08-18T06:41:13;19.40;99.90
6102;DHT22;3081;50.584;7.032;2022-08-18T06:43:48;19.40;99.90
6102;DHT22;3081;50.584;7.032;2022-08-18T06:46:19;19.50;99.90
6102;DHT22;3081;50.584;7.032;2022-08-18T06:48:53;19.40;99.90
6102;DHT22;3081;50.584;7.032;2022-08-18T06:51:26;19.40;99.90
6102;DHT22;3081;50.584;7.032;2022-08-18T06:53:57;19.20;99.90
6102;DHT22;3081;50.584;7.032;2022-08-18T06:56:31;19.20;99.90
6102;DHT22;3081;50.584;7.032;2022-08-18T06:59:16;19.10;99.90
6102;DHT22;3081;50.584;7.032;2022-08-18T07:01:45;19.10;99.90
6102;DHT22;3081;50.584;7.032;2022-08-18T07:04:38;19.00;99.90
6102;DHT22;3081;50.584;7.032;2022-08-18T07:07:17;19.00;99.90
6102;DHT22;3081;50.584;7.032;2022-08-18T07:09:47;19.00;99.90
6102;DHT22;3081;50.584;7.032;2022-08-18T07:12:20;19.10;99.90
6102;DHT22;3081;50.584;7.032;2022-08-18T07:14:50;19.20;99.90
6102;DHT22;3081;50.584;7.032;2022-08-18T07:17:22;19.20;99.90
6102;DHT22;3081;50.584;7.032;2022-08-18T07:20:03;19.30;99.90
6102;DHT22;3081;50.584;7.032;2022-08-18T07:22:31;19.30;99.90
6102;DHT22;3081;50.584;7.032;2022-08-18T07:25:00;19.30;99.90
6102;DHT22;3081;50.584;7.032;2022-08-18T07:27:44;19.30;99.90
6102;DHT22;3081;50.584;7.032;2022-08-18T07:30:26;19.40;99.90
6102;DHT22;3081;50.584;7.032;2022-08-18T07:32:56;19.60;99.90
6102;DHT22;3081;50.584;7.032;2022-08-18T07:35:29;19.70;99.90
6102;DHT22;3081;50.584;7.032;2022-08-18T07:38:01;19.60;99.90
6102;DHT22;3081;50.584;7.032;2022-08-18T07:40:35;19.60;99.90
6102;DHT22;3081;50.584;7.032;2022-08-18T07:43:08;19.60;99.90
6102;DHT22;3081;50.584;7.032;2022-08-18T07:45:40;19.60;99.90
6102;DHT22;3081;50.584;7.032;2022-08-18T07:48:11;19.50;99.90
6102;DHT22;3081;50.584;7.032;2022-08-18T07:50:44;19.50;99.90
6102;DHT22;3081;50.584;7.032;2022-08-18T07:53:26;19.40;99.90
6102;DHT22;3081;50.584;7.032;2022-08-18T07:56:01;19.30;99.90
6102;DHT22;3081;50.584;7.032;2022-08-18T07:58:35;19.30;99.90
6102;DHT22;3081;50.584;7.032;2022-08-18T08:01:09;19.30;99.90
6102;DHT22;3081;50.584;7.032;2022-08-18T08:03:51;19.20;99.90
6102;DHT22;3081;50.584;7.032;2022-08-18T08:06:24;19.20;99.90
6102;DHT22;3081;50.584;7.032;2022-08-18T08:09:03;19.10;99.90
6102;DHT22;3081;50.584;7.032;2022-08-18T08:11:42;19.10;99.90
6102;DHT22;3081;50.584;7.032;2022-08-18T08:14:26;19.00;99.90
6102;DHT22;3081;50.584;7.032;2022-08-18T08:17:02;19.00;99.90
6102;DHT22;3081;50.584;7.032;2022-08-18T08:19:47;18.90;99.90
6102;DHT22;3081;50.584;7.032;2022-08-18T08:22:22;18.90;99.90
6102;DHT22;3081;50.584;7.032;2022-08-18T08:25:00;19.00;99.90
6102;DHT22;3081;50.584;7.032;2022-08-18T08:27:40;19.10;99.90
6102;DHT22;3081;50.584;7.032;2022-08-18T08:30:14;19.20;99.90
6102;DHT22;3081;50.584;7.032;2022-08-18T08:32:50;19.20;99.90
6102;DHT22;3081;50.584;7.032;2022-08-18T08:35:28;19.20;99.90
6102;DHT22;3081;50.584;7.032;2022-08-18T08:37:59;19.20;99.90
6102;DHT22;3081;50.584;7.032;2022-08-18T08:40:34;19.20;99.90
6102;DHT22;3081;50.584;7.032;2022-08-18T08:43:08;19.30;99.90
6102;DHT22;3081;50.584;7.032;2022-08-18T08:45:41;19.30;99.90
6102;DHT22;3081;50.584;7.032;2022-08-18T08:48:13;19.30;99.90
6102;DHT22;3081;50.584;7.032;2022-08-18T08:50:47;19.50;99.90
6102;DHT22;3081;50.584;7.032;2022-08-18T08:53:19;19.60;99.90
6102;DHT22;3081;50.584;7.032;2022-08-18T08:55:51;19.60;99.90
6102;DHT22;3081;50.584;7.032;2022-08-18T08:58:24;19.60;99.90
6102;DHT22;3081;50.584;7.032;2022-08-18T09:00:54;19.70;99.90
6102;DHT22;3081;50.584;7.032;2022-08-18T09:03:30;19.70;99.90
6102;DHT22;3081;50.584;7.032;2022-08-18T09:06:08;19.90;99.90
6102;DHT22;3081;50.584;7.032;2022-08-18T09:08:51;20.00;99.90
6102;DHT22;3081;50.584;7.032;2022-08-18T09:11:38;20.00;99.90
6102;DHT22;3081;50.584;7.032;2022-08-18T09:14:35;20.10;99.90
6102;DHT22;3081;50.584;7.032;2022-08-18T09:17:21;20.30;99.90
6102;DHT22;3081;50.584;7.032;2022-08-18T09:20:00;20.40;99.90
6102;DHT22;3081;50.584;7.032;2022-08-18T09:22:37;20.40;99.90
6102;DHT22;3081;50.584;7.032;2022-08-18T09:25:10;20.30;99.90
6102;DHT22;3081;50.584;7.032;2022-08-18T09:27:41;20.20;99.90
6102;DHT22;3081;50.584;7.032;2022-08-18T09:30:39;20.10;99.90
6102;DHT22;3081;50.584;7.032;2022-08-18T09:33:19;20.10;99.90
6102;DHT22;3081;50.584;7.032;2022-08-18T09:36:14;20.10;99.90
6102;DHT22;3081;50.584;7.032;2022-08-18T09:38:49;20.20;99.90
6102;DHT22;3081;50.584;7.032;2022-08-18T09:41:39;20.40;99.90
6102;DHT22;3081;50.584;7.032;2022-08-18T09:44:14;20.70;99.90
6102;DHT22;3081;50.584;7.032;2022-08-18T09:47:03;20.80;99.90
6102;DHT22;3081;50.584;7.032;2022-08-18T09:49:44;20.80;99.90
6102;DHT22;3081;50.584;7.032;2022-08-18T09:52:48;20.70;99.90
6102;DHT22;3081;50.584;7.032;2022-08-18T09:55:40;20.40;99.90
6102;DHT22;3081;50.584;7.032;2022-08-18T09:58:17;20.30;99.90
6102;DHT22;3081;50.584;7.032;2022-08-18T10:00:44;20.40;99.90
6102;DHT22;3081;50.584;7.032;2022-08-18T10:03:22;20.40;99.90
6102;DHT22;3081;50.584;7.032;2022-08-18T10:06:12;20.40;99.90
6102;DHT22;3081;50.584;7.032;2022-08-18T10:12:04;20.60;99.90
6102;DHT22;3081;50.584;7.032;2022-08-18T10:15:12;20.70;99.90
6102;DHT22;3081;50.584;7.032;2022-08-18T10:17:52;20.70;99.90
6102;DHT22;3081;50.584;7.032;2022-08-18T10:20:30;20.90;99.90
6102;DHT22;3081;50.584;7.032;2022-08-18T10:22:58;21.50;99.90
6102;DHT22;3081;50.584;7.032;2022-08-18T10:25:36;22.00;99.90
6102;DHT22;3081;50.584;7.032;2022-08-18T10:28:05;22.30;99.90
6102;DHT22;3081;50.584;7.032;2022-08-18T10:30:47;22.50;99.90
6102;DHT22;3081;50.584;7.032;2022-08-18T10:33:58;22.60;99.90
6102;DHT22;3081;50.584;7.032;2022-08-18T10:36:53;22.90;99.90
6102;DHT22;3081;50.584;7.032;2022-08-18T10:39:22;23.10;99.90
6102;DHT22;3081;50.584;7.032;2022-08-18T10:41:56;23.50;99.90
6102;DHT22;3081;50.584;7.032;2022-08-18T10:44:25;24.40;99.90
6102;DHT22;3081;50.584;7.032;2022-08-18T10:46:53;25.00;99.90
6102;DHT22;3081;50.584;7.032;2022-08-18T10:49:24;25.60;99.90
6102;DHT22;3081;50.584;7.032;2022-08-18T10:52:04;26.20;99.90
6102;DHT22;3081;50.584;7.032;2022-08-18T10:54:43;26.50;99.90
6102;DHT22;3081;50.584;7.032;2022-08-18T10:57:19;26.50;99.90
6102;DHT22;3081;50.584;7.032;2022-08-18T10:59:56;26.20;99.40
6102;DHT22;3081;50.584;7.032;2022-08-18T11:02:41;25.90;98.90
6102;DHT22;3081;50.584;7.032;2022-08-18T11:05:15;25.60;99.40
6102;DHT22;3081;50.584;7.032;2022-08-18T11:07:47;25.30;99.50
6102;DHT22;3081;50.584;7.032;2022-08-18T11:10:20;25.10;99.30
6102;DHT22;3081;50.584;7.032;2022-08-18T11:13:01;24.90;99.50
6102;DHT22;3081;50.584;7.032;2022-08-18T11:15:37;24.70;99.90
6102;DHT22;3081;50.584;7.032;2022-08-18T11:18:16;24.70;99.90
6102;DHT22;3081;50.584;7.032;2022-08-18T11:20:45;24.50;99.90
6102;DHT22;3081;50.584;7.032;2022-08-18T11:23:16;24.40;99.90
6102;DHT22;3081;50.584;7.032;2022-08-18T11:25:43;24.20;99.90
6102;DHT22;3081;50.584;7.032;2022-08-18T11:28:14;24.00;99.90
6102;DHT22;3081;50.584;7.032;2022-08-18T11:30:42;24.00;99.90
6102;DHT22;3081;50.584;7.032;2022-08-18T11:33:14;24.00;99.90
6102;DHT22;3081;50.584;7.032;2022-08-18T11:35:46;24.20;99.90
6102;DHT22;3081;50.584;7.032;2022-08-18T11:38:16;24.40;99.90
6102;DHT22;3081;50.584;7.032;2022-08-18T11:40:45;24.70;99.90
6102;DHT22;3081;50.584;7.032;2022-08-18T11:43:17;25.30;99.60
6102;DHT22;3081;50.584;7.032;2022-08-18T11:45:51;25.80;98.20
6102;DHT22;3081;50.584;7.032;2022-08-18T11:48:22;26.50;96.60
6102;DHT22;3081;50.584;7.032;2022-08-18T11:51:02;27.10;95.40
6102;DHT22;3081;50.584;7.032;2022-08-18T11:53:40;27.50;93.40
6102;DHT22;3081;50.584;7.032;2022-08-18T11:56:20;27.70;92.80
6102;DHT22;3081;50.584;7.032;2022-08-18T11:58:51;27.50;91.70
6102;DHT22;3081;50.584;7.032;2022-08-18T12:01:37;26.80;91.70
6102;DHT22;3081;50.584;7.032;2022-08-18T12:04:14;25.90;92.60
6102;DHT22;3081;50.584;7.032;2022-08-18T12:07:00;25.40;93.70
6102;DHT22;3081;50.584;7.032;2022-08-18T12:09:38;25.10;94.50
6102;DHT22;3081;50.584;7.032;2022-08-18T12:12:14;24.80;94.80
6102;DHT22;3081;50.584;7.032;2022-08-18T12:14:54;24.50;95.40
6102;DHT22;3081;50.584;7.032;2022-08-18T12:17:21;24.30;95.70
6102;DHT22;3081;50.584;7.032;2022-08-18T12:19:48;24.20;95.90
6102;DHT22;3081;50.584;7.032;2022-08-18T12:22:17;24.30;96.10
6102;DHT22;3081;50.584;7.032;2022-08-18T12:24:46;24.60;96.10
6102;DHT22;3081;50.584;7.032;2022-08-18T12:27:15;24.70;95.50
6102;DHT22;3081;50.584;7.032;2022-08-18T12:29:43;24.90;94.80
6102;DHT22;3081;50.584;7.032;2022-08-18T12:32:11;25.00;95.10
6102;DHT22;3081;50.584;7.032;2022-08-18T12:34:38;25.60;94.80
6102;DHT22;3081;50.584;7.032;2022-08-18T12:37:08;26.40;93.60
6102;DHT22;3081;50.584;7.032;2022-08-18T12:39:36;27.00;92.40
6102;DHT22;3081;50.584;7.032;2022-08-18T12:42:05;27.40;91.20
6102;DHT22;3081;50.584;7.032;2022-08-18T12:44:32;27.50;90.40
6102;DHT22;3081;50.584;7.032;2022-08-18T12:47:00;27.60;90.20
6102;DHT22;3081;50.584;7.032;2022-08-18T12:49:28;27.80;89.90
6102;DHT22;3081;50.584;7.032;2022-08-18T12:51:55;28.40;88.10
6102;DHT22;3081;50.584;7.032;2022-08-18T12:54:23;28.70;85.20
6102;DHT22;3081;50.584;7.032;2022-08-18T12:56:51;28.60;84.80
6102;DHT22;3081;50.584;7.032;2022-08-18T12:59:21;28.40;84.80
6102;DHT22;3081;50.584;7.032;2022-08-18T13:01:48;28.60;84.40
6102;DHT22;3081;50.584;7.032;2022-08-18T13:04:15;28.90;82.30
6102;DHT22;3081;50.584;7.032;2022-08-18T13:06:45;29.20;80.00
6102;DHT22;3081;50.584;7.032;2022-08-18T13:09:13;29.10;79.60
6102;DHT22;3081;50.584;7.032;2022-08-18T13:11:40;29.00;80.20
6102;DHT22;3081;50.584;7.032;2022-08-18T13:14:07;29.30;80.30
6102;DHT22;3081;50.584;7.032;2022-08-18T13:16:39;29.60;78.70
6102;DHT22;3081;50.584;7.032;2022-08-18T13:19:08;29.70;76.80
6102;DHT22;3081;50.584;7.032;2022-08-18T13:21:35;29.50;75.90
6102;DHT22;3081;50.584;7.032;2022-08-18T13:24:02;29.40;76.70
6102;DHT22;3081;50.584;7.032;2022-08-18T13:26:32;29.70;75.80
6102;DHT22;3081;50.584;7.032;2022-08-18T13:29:00;29.70;74.60
6102;DHT22;3081;50.584;7.032;2022-08-18T13:31:28;29.80;75.40
6102;DHT22;3081;50.584;7.032;2022-08-18T13:33:57;30.10;73.70
6102;DHT22;3081;50.584;7.032;2022-08-18T13:36:26;30.40;74.30
6102;DHT22;3081;50.584;7.032;2022-08-18T13:39:09;31.10;71.80
6102;DHT22;3081;50.584;7.032;2022-08-18T13:41:36;31.40;69.60
6102;DHT22;3081;50.584;7.032;2022-08-18T13:44:03;31.30;69.50
6102;DHT22;3081;50.584;7.032;2022-08-18T13:46:30;31.20;69.30
6102;DHT22;3081;50.584;7.032;2022-08-18T13:48:58;31.70;69.00
6102;DHT22;3081;50.584;7.032;2022-08-18T13:51:27;32.60;65.70
6102;DHT22;3081;50.584;7.032;2022-08-18T13:53:54;33.50;62.80
6102;DHT22;3081;50.584;7.032;2022-08-18T13:56:22;33.80;62.70
6102;DHT22;3081;50.584;7.032;2022-08-18T13:58:49;34.20;60.60
6102;DHT22;3081;50.584;7.032;2022-08-18T14:01:16;33.80;59.80
6102;DHT22;3081;50.584;7.032;2022-08-18T14:03:43;33.40;59.90
6102;DHT22;3081;50.584;7.032;2022-08-18T14:06:12;33.90;60.10
6102;DHT22;3081;50.584;7.032;2022-08-18T14:08:40;34.50;57.00
6102;DHT22;3081;50.584;7.032;2022-08-18T14:11:07;34.30;57.60
6102;DHT22;3081;50.584;7.032;2022-08-18T14:13:35;34.30;58.00
6102;DHT22;3081;50.584;7.032;2022-08-18T14:16:02;35.10;57.40
6102;DHT22;3081;50.584;7.032;2022-08-18T14:18:29;36.10;55.40
6102;DHT22;3081;50.584;7.032;2022-08-18T14:20:56;36.40;54.20
6102;DHT22;3081;50.584;7.032;2022-08-18T14:23:42;36.60;52.70
6102;DHT22;3081;50.584;7.032;2022-08-18T14:26:26;35.90;52.80
6102;DHT22;3081;50.584;7.032;2022-08-18T14:29:10;35.10;54.10
6102;DHT22;3081;50.584;7.032;2022-08-18T14:31:37;34.50;54.90
6102;DHT22;3081;50.584;7.032;2022-08-18T14:34:04;34.50;55.70
6102;DHT22;3081;50.584;7.032;2022-08-18T14:36:32;35.30;55.40
6102;DHT22;3081;50.584;7.032;2022-08-18T14:39:01;36.40;53.60
6102;DHT22;3081;50.584;7.032;2022-08-18T14:41:29;36.60;51.50
6102;DHT22;3081;50.584;7.032;2022-08-18T14:43:57;36.40;51.50
6102;DHT22;3081;50.584;7.032;2022-08-18T14:46:25;36.40;51.60
6102;DHT22;3081;50.584;7.032;2022-08-18T14:48:52;35.80;51.70
6102;DHT22;3081;50.584;7.032;2022-08-18T14:51:19;34.70;53.20
6102;DHT22;3081;50.584;7.032;2022-08-18T14:53:46;33.70;55.00
6102;DHT22;3081;50.584;7.032;2022-08-18T14:56:15;33.20;55.70
6102;DHT22;3081;50.584;7.032;2022-08-18T14:58:42;32.80;56.50
6102;DHT22;3081;50.584;7.032;2022-08-18T15:01:09;32.50;56.90
6102;DHT22;3081;50.584;7.032;2022-08-18T15:03:38;32.10;57.70
6102;DHT22;3081;50.584;7.032;2022-08-18T15:06:07;32.90;57.90
6102;DHT22;3081;50.584;7.032;2022-08-18T15:08:36;34.50;55.10
6102;DHT22;3081;50.584;7.032;2022-08-18T15:11:05;34.70;53.90
6102;DHT22;3081;50.584;7.032;2022-08-18T15:13:33;35.40;53.10
6102;DHT22;3081;50.584;7.032;2022-08-18T15:16:02;36.40;51.80
6102;DHT22;3081;50.584;7.032;2022-08-18T15:18:29;37.40;50.50
6102;DHT22;3081;50.584;7.032;2022-08-18T15:20:56;37.80;48.90
6102;DHT22;3081;50.584;7.032;2022-08-18T15:23:41;37.80;48.80
6102;DHT22;3081;50.584;7.032;2022-08-18T15:26:25;38.40;48.40
6102;DHT22;3081;50.584;7.032;2022-08-18T15:28:53;38.30;47.30
6102;DHT22;3081;50.584;7.032;2022-08-18T15:31:21;37.40;47.50
6102;DHT22;3081;50.584;7.032;2022-08-18T15:33:48;36.00;48.60
6102;DHT22;3081;50.584;7.032;2022-08-18T15:36:15;35.50;50.40
6102;DHT22;3081;50.584;7.032;2022-08-18T15:38:44;35.20;50.80
6102;DHT22;3081;50.584;7.032;2022-08-18T15:41:27;34.40;51.80
6102;DHT22;3081;50.584;7.032;2022-08-18T15:43:55;33.40;53.50
6102;DHT22;3081;50.584;7.032;2022-08-18T15:46:23;32.50;54.80
6102;DHT22;3081;50.584;7.032;2022-08-18T15:48:50;31.90;56.20
6102;DHT22;3081;50.584;7.032;2022-08-18T15:51:17;32.00;56.60
6102;DHT22;3081;50.584;7.032;2022-08-18T15:53:45;33.00;55.70
6102;DHT22;3081;50.584;7.032;2022-08-18T15:56:15;34.40;54.20
6102;DHT22;3081;50.584;7.032;2022-08-18T15:58:42;35.10;51.80
6102;DHT22;3081;50.584;7.032;2022-08-18T16:01:13;34.70;51.60
6102;DHT22;3081;50.584;7.032;2022-08-18T16:03:40;34.60;51.80
6102;DHT22;3081;50.584;7.032;2022-08-18T16:06:11;35.10;51.10
6102;DHT22;3081;50.584;7.032;2022-08-18T16:08:39;34.60;50.80
6102;DHT22;3081;50.584;7.032;2022-08-18T16:11:07;33.50;52.60
6102;DHT22;3081;50.584;7.032;2022-08-18T16:13:34;32.50;54.60
6102;DHT22;3081;50.584;7.032;2022-08-18T16:16:08;31.70;55.70
6102;DHT22;3081;50.584;7.032;2022-08-18T16:18:38;31.00;56.30
6102;DHT22;3081;50.584;7.032;2022-08-18T16:21:06;30.40;57.30
6102;DHT22;3081;50.584;7.032;2022-08-18T16:23:36;29.90;58.20
6102;DHT22;3081;50.584;7.032;2022-08-18T16:26:04;29.40;59.20
6102;DHT22;3081;50.584;7.032;2022-08-18T16:28:32;29.20;60.00
6102;DHT22;3081;50.584;7.032;2022-08-18T16:30:59;29.00;60.70
6102;DHT22;3081;50.584;7.032;2022-08-18T16:33:27;28.90;61.50
6102;DHT22;3081;50.584;7.032;2022-08-18T16:36:01;28.80;62.30